createdAt,value
2023-02-05T00:00:19.848Z,7.300
2023-02-05T00:01:23.924Z,7.099
2023-02-05T00:02:18.359Z,6.699
2023-02-05T00:03:26.477Z,7.199
2023-02-05T00:04:18.990Z,6.800
2023-02-05T00:05:18.750Z,7.599
2023-02-05T00:06:18.047Z,8.600
2023-02-05T00:07:18.371Z,7
2023-02-05T00:08:18.284Z,7.099
2023-02-05T00:09:18.591Z,7
2023-02-05T00:10:18.964Z,7.599
2023-02-05T00:11:18.484Z,6.900
2023-02-05T00:12:18.770Z,7.099
2023-02-05T00:13:18.520Z,7
2023-02-05T00:14:18.644Z,7.199
2023-02-05T00:15:19.222Z,7
2023-02-05T00:16:18.601Z,7.800
2023-02-05T00:17:18.235Z,7
2023-02-05T00:19:18.605Z,7.900
2023-02-05T00:20:18.935Z,8.100
2023-02-05T00:21:18.552Z,8.199
2023-02-05T00:22:18.536Z,8
2023-02-05T00:23:18.700Z,7.800
2023-02-05T00:24:18.045Z,7.900
2023-02-05T00:25:18.457Z,9.199
2023-02-05T00:26:18.521Z,8.100
2023-02-05T00:27:18.842Z,9.300
2023-02-05T00:28:18.956Z,8
2023-02-05T00:29:18.151Z,8.899
2023-02-05T00:30:18.585Z,7.900
2023-02-05T00:31:18.233Z,8
2023-02-05T00:32:18.611Z,8.5
2023-02-05T00:33:18.790Z,7.900
2023-02-05T00:34:18.390Z,8.199
2023-02-05T00:35:18.619Z,7.900
2023-02-05T00:36:18.407Z,7.300
2023-02-05T00:37:18.196Z,8.100
2023-02-05T00:38:17.802Z,7.699
2023-02-05T00:39:18.535Z,9.100
2023-02-05T00:40:18.030Z,9
2023-02-05T00:41:17.743Z,8.5
2023-02-05T00:42:18.307Z,8.600
2023-02-05T00:43:18.034Z,8.399
2023-02-05T00:44:17.981Z,8.199
2023-02-05T00:45:17.889Z,8
2023-02-05T00:46:18.477Z,8.199
2023-02-05T00:48:18.521Z,9
2023-02-05T00:49:18.321Z,9.199
2023-02-05T00:50:18.039Z,8.5
2023-02-05T00:51:17.893Z,8.100
2023-02-05T00:52:17.864Z,7.900
2023-02-05T00:53:17.637Z,8.199
2023-02-05T00:54:17.833Z,7.400
2023-02-05T00:55:18.037Z,7.300
2023-02-05T00:57:17.995Z,7.800
2023-02-05T00:58:17.897Z,7.599
2023-02-05T00:59:18.314Z,7.699
2023-02-05T01:00:19.860Z,8.5
2023-02-05T01:02:18.316Z,8.899
2023-02-05T01:03:18.326Z,8.100
2023-02-05T01:04:18.216Z,8.5
2023-02-05T01:05:18.300Z,8.800
2023-02-05T01:06:18.071Z,8.600
2023-02-05T01:07:18.628Z,8
2023-02-05T01:08:18.935Z,7.699
2023-02-05T01:09:18.440Z,7.599
2023-02-05T01:10:18.386Z,8.600
2023-02-05T01:11:18.704Z,7.400
2023-02-05T01:12:19.047Z,7.599
2023-02-05T01:13:18.912Z,7.800
2023-02-05T01:14:18.911Z,7.699
2023-02-05T01:15:18.898Z,7.5
2023-02-05T01:17:18.616Z,7
2023-02-05T01:18:18.575Z,7.5
2023-02-05T01:19:18.674Z,7.199
2023-02-05T01:20:18.660Z,7.300
2023-02-05T01:21:18.384Z,7.199
2023-02-05T01:22:18.938Z,7.900
2023-02-05T01:23:18.669Z,7
2023-02-05T01:24:18.817Z,7.300
2023-02-05T01:25:18.725Z,7.599
2023-02-05T01:26:18.496Z,7.300
2023-02-05T01:27:18.879Z,7.800
2023-02-05T01:28:19.061Z,7.300
2023-02-05T01:30:19.467Z,8.300
2023-02-05T01:31:18.641Z,7.5
2023-02-05T01:32:18.752Z,8.399
2023-02-05T01:33:18.712Z,8.100
2023-02-05T01:34:18.333Z,8
2023-02-05T01:35:19.441Z,7.800
2023-02-05T01:36:19.123Z,7.900
2023-02-05T01:37:18.642Z,7.599
2023-02-05T01:38:18.898Z,8.100
2023-02-05T01:39:18.373Z,8.300
2023-02-05T01:40:18.661Z,8.899
2023-02-05T01:41:18.515Z,9.300
2023-02-05T01:42:18.022Z,9.100
2023-02-05T01:43:18.180Z,8.5
2023-02-05T01:45:18.827Z,9.199
2023-02-05T01:46:18.693Z,9.300
2023-02-05T01:47:17.852Z,10.10
2023-02-05T01:48:18.580Z,10
2023-02-05T01:49:18.579Z,9.800
2023-02-05T01:50:18.610Z,9.100
2023-02-05T01:51:17.731Z,9.399
2023-02-05T01:52:18.629Z,9.800
2023-02-05T01:53:18.649Z,9.100
2023-02-05T01:55:18.191Z,8.5
2023-02-05T01:56:18.195Z,9
2023-02-05T01:57:17.940Z,8.699
2023-02-05T01:58:17.808Z,8.300
2023-02-05T01:59:18.462Z,7.900
2023-02-05T02:00:19.403Z,8.300
2023-02-05T02:02:18.143Z,7.900
2023-02-05T02:03:18.257Z,8.199
2023-02-05T02:04:20.099Z,8.5
2023-02-05T02:05:19.307Z,8.100
2023-02-05T02:06:18.100Z,8
2023-02-05T02:07:20.419Z,8.5
2023-02-05T02:08:18.279Z,8.199
2023-02-05T02:10:18.816Z,8.399
2023-02-05T02:11:18.251Z,8.5
2023-02-05T02:12:18.107Z,8.199
2023-02-05T02:13:17.860Z,8.300
2023-02-05T02:14:18.610Z,7.800
2023-02-05T02:15:18.966Z,8.199
2023-02-05T02:17:18.315Z,7.800
2023-02-05T02:18:17.671Z,8.100
2023-02-05T02:19:18.486Z,8
2023-02-05T02:20:18.256Z,7.400
2023-02-05T02:21:17.926Z,8.100
2023-02-05T02:23:18.534Z,7.300
2023-02-05T02:24:18.943Z,8
2023-02-05T02:25:18.419Z,7.900
2023-02-05T02:26:18.175Z,8.100
2023-02-05T02:27:17.980Z,8
2023-02-05T02:28:18.321Z,8.399
2023-02-05T02:30:18.607Z,8.699
2023-02-05T02:31:18.063Z,8.100
2023-02-05T02:32:18.105Z,8.800
2023-02-05T02:33:17.993Z,8.199
2023-02-05T02:34:18.767Z,8.399
2023-02-05T02:35:18.956Z,8.800
2023-02-05T02:36:18.604Z,8.5
2023-02-05T02:37:18.066Z,8.600
2023-02-05T02:39:18.490Z,9.699
2023-02-05T02:40:18.560Z,9.300
2023-02-05T02:41:18.167Z,9.199
2023-02-05T02:42:17.877Z,9.600
2023-02-05T02:43:18.608Z,10
2023-02-05T02:44:18.526Z,10.89
2023-02-05T02:45:18.403Z,10.80
2023-02-05T02:46:17.733Z,11.19
2023-02-05T02:47:18.299Z,10.89
2023-02-05T02:49:18.366Z,10.60
2023-02-05T02:50:18.317Z,10.5
2023-02-05T02:52:18.808Z,11.39
2023-02-05T02:53:18.337Z,10.5
2023-02-05T02:54:17.979Z,11.30
2023-02-05T02:55:18.185Z,11.60
2023-02-05T02:56:18.472Z,10.39
2023-02-05T02:57:18.586Z,11.39
2023-02-05T02:59:17.883Z,10.39
2023-02-05T03:00:20.040Z,11.30
2023-02-05T03:01:18.065Z,11.10
2023-02-05T03:02:17.688Z,10.80
2023-02-05T03:03:18.366Z,10.10
2023-02-05T03:04:18.213Z,10.30
2023-02-05T03:05:18.076Z,10.69
2023-02-05T03:06:18.443Z,10.19
2023-02-05T03:07:18.521Z,10
2023-02-05T03:08:18.542Z,9.199
2023-02-05T03:09:18.680Z,9.600
2023-02-05T03:10:18.583Z,9.899
2023-02-05T03:11:18.724Z,9.199
2023-02-05T03:12:18.450Z,9.100
2023-02-05T03:13:18.809Z,10.19
2023-02-05T03:15:18.816Z,9.899
2023-02-05T03:17:18.180Z,10
2023-02-05T03:18:18.159Z,10.10
2023-02-05T03:19:17.877Z,10.5
2023-02-05T03:20:17.924Z,10.89
2023-02-05T03:21:17.729Z,10.5
2023-02-05T03:22:18.537Z,11.39
2023-02-05T03:23:18.212Z,10.80
2023-02-05T03:24:17.720Z,10.39
2023-02-05T03:25:19.238Z,10.10
2023-02-05T03:26:17.765Z,10.69
2023-02-05T03:27:18.389Z,10.10
2023-02-05T03:28:18.219Z,9.800
2023-02-05T03:29:18.166Z,10.19
2023-02-05T03:30:18.950Z,10.39
2023-02-05T03:31:18.675Z,10.30
2023-02-05T03:32:18.427Z,10.5
2023-02-05T03:33:18.508Z,10.60
2023-02-05T03:34:18.115Z,9.899
2023-02-05T03:35:18.240Z,10.10
2023-02-05T03:36:18.248Z,10.30
2023-02-05T03:37:18.313Z,9.800
2023-02-05T03:38:18.346Z,9.5
2023-02-05T03:39:18.348Z,10.10
2023-02-05T03:40:18.796Z,10.19
2023-02-05T03:41:18.085Z,10.5
2023-02-05T03:42:18.222Z,10
2023-02-05T03:43:18.071Z,9.800
2023-02-05T03:44:18.464Z,10.39
2023-02-05T03:45:19.047Z,9.800
2023-02-05T03:47:18.279Z,9.899
2023-02-05T03:48:18.588Z,10.30
2023-02-05T03:49:18.666Z,9.699
2023-02-05T03:50:19.371Z,10.30
2023-02-05T03:51:18.735Z,9.600
2023-02-05T03:52:18.670Z,10.39
2023-02-05T03:53:18.785Z,10.69
2023-02-05T03:54:18.731Z,10.10
2023-02-05T03:56:18.668Z,9.899
2023-02-05T03:57:18.641Z,10.30
2023-02-05T03:58:18.548Z,10.5
2023-02-05T03:59:18.786Z,9.699
2023-02-05T04:00:19.954Z,10.30
2023-02-05T04:01:18.226Z,9.899
2023-02-05T04:04:18.366Z,10
2023-02-05T04:05:18.617Z,9.800
2023-02-05T04:06:18.886Z,10.39
2023-02-05T04:07:18.790Z,10
2023-02-05T04:08:18.037Z,9.800
2023-02-05T04:09:18.276Z,9.600
2023-02-05T04:10:18.426Z,9.5
2023-02-05T04:11:18.121Z,9.699
2023-02-05T04:12:18.541Z,10
2023-02-05T04:13:18.199Z,9.600
2023-02-05T04:14:17.901Z,9.699
2023-02-05T04:15:18.815Z,9.600
2023-02-05T04:16:18.414Z,9.800
2023-02-05T04:17:18.391Z,8.899
2023-02-05T04:18:17.924Z,9.399
2023-02-05T04:19:18.313Z,9.199
2023-02-05T04:20:17.877Z,9.100
2023-02-05T04:21:18.067Z,9.399
2023-02-05T04:22:17.769Z,8.699
2023-02-05T04:23:18.006Z,8.5
2023-02-05T04:24:18.669Z,7.900
2023-02-05T04:25:18.536Z,8.600
2023-02-05T04:26:18.103Z,8.5
2023-02-05T04:27:17.881Z,8.600
2023-02-05T04:28:18.350Z,8.300
2023-02-05T04:29:17.611Z,8.199
2023-02-05T04:30:18.313Z,8.399
2023-02-05T04:31:17.942Z,7.699
2023-02-05T04:32:18.259Z,7.900
2023-02-05T04:33:17.726Z,8.699
2023-02-05T04:34:18.438Z,8.199
2023-02-05T04:35:18.480Z,7.800
2023-02-05T04:36:17.654Z,8.199
2023-02-05T04:38:17.859Z,8
2023-02-05T04:39:17.663Z,8.600
2023-02-05T04:40:17.660Z,7.699
2023-02-05T04:41:18.028Z,8.800
2023-02-05T04:42:18.585Z,8.399
2023-02-05T04:43:18.004Z,8.800
2023-02-05T04:44:18.320Z,9
2023-02-05T04:46:17.659Z,9.600
2023-02-05T04:47:18.400Z,8.800
2023-02-05T04:48:17.964Z,8.5
2023-02-05T04:49:17.923Z,8.600
2023-02-05T04:50:17.835Z,8.800
2023-02-05T04:51:18.757Z,8
2023-02-05T04:52:18.781Z,8.199
2023-02-05T04:53:18.328Z,8.600
2023-02-05T04:54:17.805Z,8.199
2023-02-05T04:55:18.778Z,8.600
2023-02-05T04:56:18.159Z,8.300
2023-02-05T04:57:18.011Z,8.399
2023-02-05T04:59:18.104Z,8.5
2023-02-05T05:00:18.648Z,8.699
2023-02-05T05:01:18.783Z,8.800
2023-02-05T05:02:17.573Z,8.600
2023-02-05T05:04:17.956Z,8.300
2023-02-05T05:05:17.863Z,8.899
2023-02-05T05:06:18.293Z,8.300
2023-02-05T05:07:17.929Z,8.699
2023-02-05T05:08:18.114Z,8.899
2023-02-05T05:09:17.663Z,9.5
2023-02-05T05:10:18.572Z,8.800
2023-02-05T05:11:18.051Z,9.5
2023-02-05T05:12:18.011Z,9.600
2023-02-05T05:13:18.108Z,9.800
2023-02-05T05:14:18.322Z,9.699
2023-02-05T05:15:18.599Z,10.19
2023-02-05T05:16:18.553Z,11.30
2023-02-05T05:17:18.649Z,12.10
2023-02-05T05:18:18.237Z,11.69
2023-02-05T05:19:18.037Z,11
2023-02-05T05:20:18.860Z,11.5
2023-02-05T05:21:17.887Z,10.19
2023-02-05T05:22:18.038Z,10
2023-02-05T05:23:18.821Z,11.10
2023-02-05T05:24:18.757Z,10.69
2023-02-05T05:25:19.061Z,10.30
2023-02-05T05:26:18.034Z,11.10
2023-02-05T05:27:17.790Z,12.5
2023-02-05T05:28:18.837Z,11.39
2023-02-05T05:30:18.477Z,11.69
2023-02-05T05:31:18.424Z,13
2023-02-05T05:32:18.426Z,12.80
2023-02-05T05:34:18.743Z,13.10
2023-02-05T05:35:18.384Z,12.69
2023-02-05T05:36:18.537Z,13.39
2023-02-05T05:37:18.357Z,14.60
2023-02-05T05:38:17.773Z,13.19
2023-02-05T05:39:17.697Z,14.5
2023-02-05T05:40:18.521Z,14.10
2023-02-05T05:41:18.697Z,12.60
2023-02-05T05:42:18.706Z,13.5
2023-02-05T05:44:18.633Z,13.89
2023-02-05T05:45:18.817Z,14.19
2023-02-05T05:46:18.674Z,13.60
2023-02-05T05:47:17.882Z,13.19
2023-02-05T05:48:18.701Z,13.69
2023-02-05T05:49:18.510Z,13.10
2023-02-05T05:50:18.462Z,13.19
2023-02-05T05:51:18.025Z,13
2023-02-05T05:52:18.151Z,13.60
2023-02-05T05:53:18.441Z,13.39
2023-02-05T05:55:19.104Z,12.60
2023-02-05T05:56:18.145Z,13.69
2023-02-05T05:57:18.368Z,13.89
2023-02-05T05:58:18.685Z,12.89
2023-02-05T05:59:18.852Z,12.5
2023-02-05T06:00:19.213Z,12.19
2023-02-05T06:01:18.391Z,12.5
2023-02-05T06:02:18.776Z,12.30
2023-02-05T06:03:18.119Z,11.89
2023-02-05T06:05:18.514Z,12.89
2023-02-05T06:06:18.628Z,12.19
2023-02-05T06:07:18.382Z,12.5
2023-02-05T06:08:18.666Z,11.60
2023-02-05T06:09:18.234Z,12.80
2023-02-05T06:10:18.676Z,11.60
2023-02-05T06:11:17.849Z,11.5
2023-02-05T06:12:18.605Z,11.89
2023-02-05T06:13:18.628Z,12.19
2023-02-05T06:14:18.871Z,11.60
2023-02-05T06:15:18.530Z,11.80
2023-02-05T06:16:18.813Z,11.69
2023-02-05T06:17:18.194Z,12.60
2023-02-05T06:18:18.494Z,12.5
2023-02-05T06:19:17.813Z,11.30
2023-02-05T06:20:19.588Z,11.10
2023-02-05T06:21:18.590Z,12.10
2023-02-05T06:22:18.719Z,13.10
2023-02-05T06:23:18.795Z,11.80
2023-02-05T06:24:18.457Z,12.39
2023-02-05T06:25:18.483Z,11.69
2023-02-05T06:26:18.317Z,13.89
2023-02-05T06:27:18.361Z,12.80
2023-02-05T06:28:18.618Z,13
2023-02-05T06:29:18.501Z,12.60
2023-02-05T06:30:19.350Z,12.69
2023-02-05T06:31:18.836Z,12.39
2023-02-05T06:32:18.702Z,11.80
2023-02-05T06:33:18.756Z,11.89
2023-02-05T06:34:18.655Z,12.5
2023-02-05T06:35:18.879Z,13.10
2023-02-05T06:36:17.838Z,12.80
2023-02-05T06:37:18.042Z,12.5
2023-02-05T06:38:18.721Z,13.60
2023-02-05T06:39:17.990Z,12.69
2023-02-05T06:40:18.514Z,12.5
2023-02-05T06:41:18.880Z,12.89
2023-02-05T06:42:18.184Z,13
2023-02-05T06:43:17.855Z,14.10
2023-02-05T06:44:17.971Z,13.39
2023-02-05T06:45:18.355Z,13.19
2023-02-05T06:46:18.035Z,12.60
2023-02-05T06:47:18.207Z,13.10
2023-02-05T06:48:17.988Z,12.89
2023-02-05T06:49:18.569Z,12.30
2023-02-05T06:50:18.592Z,13.10
2023-02-05T06:51:18.724Z,12.69
2023-02-05T06:53:18.475Z,12.80
2023-02-05T06:54:18.691Z,13.30
2023-02-05T06:55:19.039Z,12.5
2023-02-05T06:56:18.295Z,12.19
2023-02-05T06:57:18.022Z,12.5
2023-02-05T06:58:18.035Z,12.80
2023-02-05T06:59:18.367Z,13.89
2023-02-05T07:00:19.771Z,13.80
2023-02-05T07:01:18.719Z,13.30
2023-02-05T07:02:18.024Z,13.60
2023-02-05T07:03:18.550Z,13.19
2023-02-05T07:04:18.235Z,13.39
2023-02-05T07:05:18.833Z,13.10
2023-02-05T07:06:18.626Z,13.39
2023-02-05T07:07:18.642Z,13.80
2023-02-05T07:08:17.872Z,13
2023-02-05T07:09:18.383Z,13.80
2023-02-05T07:10:18.615Z,13.5
2023-02-05T07:12:23.858Z,13.30
2023-02-05T07:13:18.286Z,14.89
2023-02-05T07:14:23.306Z,14.39
2023-02-05T07:15:19.071Z,13.69
2023-02-05T07:16:23.180Z,13.5
2023-02-05T07:17:18.468Z,13.80
2023-02-05T07:18:18.687Z,13.60
2023-02-05T07:19:19.064Z,14.19
2023-02-05T07:20:18.704Z,13.30
2023-02-05T07:21:18.416Z,13.69
2023-02-05T07:22:18.096Z,14.10
2023-02-05T07:23:18.288Z,13.39
2023-02-05T07:24:18.645Z,14.30
2023-02-05T07:25:18.907Z,13.10
2023-02-05T07:26:18.061Z,13.30
2023-02-05T07:28:18.146Z,14.10
2023-02-05T07:29:18.229Z,13.69
2023-02-05T07:30:18.555Z,14.30
2023-02-05T07:31:18.489Z,14.19
2023-02-05T07:32:18.675Z,13.69
2023-02-05T07:33:18.399Z,13.5
2023-02-05T07:35:18.973Z,14
2023-02-05T07:36:18.440Z,15
2023-02-05T07:37:20.544Z,13.39
2023-02-05T07:38:19.027Z,13.89
2023-02-05T07:39:19.100Z,13.60
2023-02-05T07:40:19.900Z,13
2023-02-05T07:42:18.885Z,12.80
2023-02-05T07:43:18.825Z,13
2023-02-05T07:44:38.077Z,13.19
2023-02-05T07:45:19.122Z,12.69
2023-02-05T07:46:19.178Z,12.30
2023-02-05T07:47:19.034Z,12.60
2023-02-05T07:48:18.485Z,13.19
2023-02-05T07:49:18.735Z,12.10
2023-02-05T07:50:19.331Z,12.80
2023-02-05T07:51:18.674Z,12.89
2023-02-05T07:52:18.574Z,14.5
2023-02-05T07:53:18.599Z,14.10
2023-02-05T07:54:19.050Z,14.80
2023-02-05T07:55:18.739Z,13.89
2023-02-05T07:56:18.807Z,15.19
2023-02-05T07:57:18.355Z,15
2023-02-05T07:58:40.669Z,15.19
2023-02-05T07:59:18.969Z,15.89
2023-02-05T08:00:20.051Z,16.70
2023-02-05T08:01:19.240Z,15.5
2023-02-05T08:02:19.118Z,16.39
2023-02-05T08:03:18.769Z,16.29
2023-02-05T08:04:19.187Z,16.60
2023-02-05T08:05:19.013Z,15.5
2023-02-05T08:06:19.075Z,16
2023-02-05T08:07:18.959Z,16.5
2023-02-05T08:08:18.806Z,15.60
2023-02-05T08:09:18.728Z,16.70
2023-02-05T08:10:19.336Z,16.20
2023-02-05T08:12:19.131Z,15.89
2023-02-05T08:13:18.781Z,16
2023-02-05T08:15:18.996Z,16.89
2023-02-05T08:16:18.637Z,15.60
2023-02-05T08:17:18.981Z,15.5
2023-02-05T08:18:18.380Z,16
2023-02-05T08:19:18.989Z,15.89
2023-02-05T08:20:18.723Z,15.39
2023-02-05T08:21:18.832Z,15.30
2023-02-05T08:22:18.385Z,15.89
2023-02-05T08:23:19.193Z,17.5
2023-02-05T08:24:18.867Z,16.70
2023-02-05T08:25:18.770Z,16.60
2023-02-05T08:26:18.685Z,15.39
2023-02-05T08:27:18.977Z,16.39
2023-02-05T08:28:18.833Z,15.89
2023-02-05T08:29:18.743Z,15.69
2023-02-05T08:30:19.105Z,16.29
2023-02-05T08:31:19.081Z,15.89
2023-02-05T08:32:18.894Z,16
2023-02-05T08:33:18.811Z,16.10
2023-02-05T08:34:20.529Z,17.10
2023-02-05T08:35:18.471Z,15.19
2023-02-05T08:36:19.557Z,15.10
2023-02-05T08:37:18.303Z,14.89
2023-02-05T08:38:19.200Z,15.10
2023-02-05T08:39:18.945Z,15.39
2023-02-05T08:40:18.740Z,14.5
2023-02-05T08:41:18.685Z,15.19
2023-02-05T08:42:19.019Z,14.69
2023-02-05T08:43:19.646Z,15
2023-02-05T08:44:18.981Z,15.39
2023-02-05T08:45:19.225Z,15.10
2023-02-05T08:46:19.318Z,14.19
2023-02-05T08:47:19.061Z,15.60
2023-02-05T08:48:19.786Z,14.80
2023-02-05T08:49:19.541Z,14.5
2023-02-05T08:50:19.189Z,14.30
2023-02-05T08:51:19.258Z,13.5
2023-02-05T08:52:19.548Z,13.19
2023-02-05T08:54:19.090Z,13
2023-02-05T08:55:19.660Z,13.19
2023-02-05T08:56:20.329Z,12.89
2023-02-05T08:57:18.569Z,12
2023-02-05T08:58:19.023Z,11.80
2023-02-05T08:59:18.945Z,12.39
2023-02-05T09:00:20.884Z,12.89
2023-02-05T09:01:19.292Z,12.30
2023-02-05T09:02:18.749Z,12.80
2023-02-05T09:03:18.912Z,12.69
2023-02-05T09:04:19.050Z,12.60
2023-02-05T09:05:19.293Z,12.89
2023-02-05T09:06:19.565Z,11.39
2023-02-05T09:07:19.282Z,11
2023-02-05T09:08:20.222Z,10.10
2023-02-05T09:09:19.139Z,9.800
2023-02-05T09:10:19.253Z,8.899
2023-02-05T09:11:18.974Z,9.199
2023-02-05T09:12:19.380Z,8.399
2023-02-05T09:13:19.301Z,8
2023-02-05T09:14:19.051Z,8.600
2023-02-05T09:15:19.589Z,8.699
2023-02-05T09:16:19.129Z,8.5
2023-02-05T09:18:19.182Z,8.600
2023-02-05T09:19:18.680Z,8.399
2023-02-05T09:20:19.657Z,7.400
2023-02-05T09:21:19.749Z,7.099
2023-02-05T09:22:19.164Z,5.699
2023-02-05T09:23:19.646Z,5
2023-02-05T09:24:19.225Z,4.300
2023-02-05T09:25:19.126Z,4
2023-02-05T09:26:19.358Z,3.5
2023-02-05T09:27:19.226Z,3.299
2023-02-05T09:28:19.654Z,2.900
2023-02-05T09:29:19.509Z,2.799
2023-02-05T09:30:19.173Z,2.700
2023-02-05T09:31:19.383Z,2.299
2023-02-05T09:32:19.839Z,2.099
2023-02-05T09:33:19.440Z,2.400
2023-02-05T09:34:18.961Z,2.299
2023-02-05T09:36:19.043Z,2.099
2023-02-05T09:37:19.171Z,1.899
2023-02-05T09:38:19.713Z,1.799
2023-02-05T09:39:44.315Z,1.600
2023-02-05T09:40:28.329Z,1.799
2023-02-05T09:41:18.527Z,1.5
2023-02-05T09:42:18.292Z,1.399
2023-02-05T09:43:18.390Z,1.700
2023-02-05T09:44:19.004Z,1.399
2023-02-05T09:45:18.959Z,1.700
2023-02-05T09:46:19.160Z,1.399
2023-02-05T09:47:18.614Z,1.600
2023-02-05T09:50:19.569Z,1.700
2023-02-05T09:51:18.738Z,1.5
2023-02-05T09:52:18.547Z,1.399
2023-02-05T09:55:19.331Z,1.5
2023-02-05T09:57:18.555Z,1.399
2023-02-05T09:58:18.648Z,1.600
2023-02-05T10:00:19.249Z,1.399
2023-02-05T10:01:33.368Z,1.5
2023-02-05T10:02:19.159Z,1.399
2023-02-05T10:06:19.417Z,1.700
2023-02-05T10:07:19.543Z,1.399
2023-02-05T10:09:19.041Z,1.299
2023-02-05T10:10:19.808Z,1.399
2023-02-05T10:13:19.198Z,1.600
2023-02-05T10:14:19.344Z,1.399
2023-02-05T10:15:19.668Z,1.700
2023-02-05T10:16:19.765Z,1.5
2023-02-05T10:17:19.624Z,1.399
2023-02-05T10:18:19.307Z,1.299
2023-02-05T10:19:19.149Z,1.399
2023-02-05T10:20:19.610Z,1.600
2023-02-05T10:21:19.673Z,1.399
2023-02-05T10:22:19.547Z,1.299
2023-02-05T10:23:18.858Z,1.5
2023-02-05T10:24:19.773Z,1.299
2023-02-05T10:25:18.869Z,1.200
2023-02-05T10:26:19.561Z,1.299
2023-02-05T10:28:19.378Z,1.700
2023-02-05T10:30:19.849Z,1.899
2023-02-05T10:32:19.086Z,1.700
2023-02-05T10:33:19.221Z,1.299
2023-02-05T10:34:18.958Z,1.700
2023-02-05T10:35:19.258Z,1.200
2023-02-05T10:36:19.145Z,1.399
2023-02-05T10:37:18.922Z,1.5
2023-02-05T10:38:18.971Z,1.299
2023-02-05T10:39:18.823Z,1.899
2023-02-05T10:40:19.328Z,1.700
2023-02-05T10:41:19.156Z,1.600
2023-02-05T10:42:19.741Z,1.5
2023-02-05T10:43:19.893Z,1.799
2023-02-05T10:44:19.320Z,1.600
2023-02-05T10:45:19.718Z,1.799
2023-02-05T10:46:18.796Z,1.700
2023-02-05T10:47:18.803Z,2.099
2023-02-05T10:48:19.078Z,1.899
2023-02-05T10:49:18.686Z,1.600
2023-02-05T10:50:18.934Z,1.700
2023-02-05T10:52:19.119Z,1.799
2023-02-05T10:53:19.059Z,1.899
2023-02-05T10:55:18.875Z,2.099
2023-02-05T10:56:18.179Z,2
2023-02-05T10:57:18.615Z,2.099
2023-02-05T10:58:18.769Z,1.899
2023-02-05T11:00:19.671Z,2.200
2023-02-05T11:02:19.072Z,2.099
2023-02-05T11:03:19.393Z,2
2023-02-05T11:04:18.533Z,2.200
2023-02-05T11:06:19.235Z,2.299
2023-02-05T11:07:19.213Z,2.400
2023-02-05T11:08:18.920Z,2.200
2023-02-05T11:09:19.537Z,2.299
2023-02-05T11:12:18.933Z,2.200
2023-02-05T11:13:19.127Z,2.299
2023-02-05T11:14:19.094Z,2.400
2023-02-05T11:17:19.186Z,2.099
2023-02-05T11:18:18.758Z,2.200
2023-02-05T11:19:18.165Z,2.5
2023-02-05T11:20:19.132Z,2.400
2023-02-05T11:21:18.197Z,2.299
2023-02-05T11:23:18.437Z,2
2023-02-05T11:24:19.096Z,1.899
2023-02-05T11:26:19.045Z,2.200
2023-02-05T11:27:19.150Z,1.899
2023-02-05T11:28:18.801Z,2.200
2023-02-05T11:29:18.713Z,1.799
2023-02-05T11:30:37.678Z,2.099
2023-02-05T11:31:19.005Z,2
2023-02-05T11:32:18.992Z,2.200
2023-02-05T11:33:20.113Z,2.5
2023-02-05T11:34:18.440Z,2.099
2023-02-05T11:35:19.021Z,2.5
2023-02-05T11:37:18.999Z,2.299
2023-02-05T11:38:18.676Z,2.400
2023-02-05T11:39:18.948Z,2.5
2023-02-05T11:40:19.624Z,2.400
2023-02-05T11:41:18.929Z,2.099
2023-02-05T11:42:18.996Z,2.400
2023-02-05T11:44:19.345Z,3
2023-02-05T11:45:19.265Z,2.299
2023-02-05T11:46:18.837Z,2.200
2023-02-05T11:47:18.936Z,2.5
2023-02-05T11:50:18.983Z,2.299
2023-02-05T11:51:19.478Z,2.5
2023-02-05T11:52:19.064Z,2.599
2023-02-05T11:54:18.761Z,2.299
2023-02-05T11:55:19.585Z,2.700
2023-02-05T11:56:21.330Z,2.799
2023-02-05T11:58:25.118Z,2.599
2023-02-05T11:59:19.497Z,2.5
2023-02-05T12:00:21.357Z,2.799
2023-02-05T12:02:21.243Z,2.700
2023-02-05T12:04:24.491Z,2.900
2023-02-05T12:05:19.016Z,3
2023-02-05T12:06:19.405Z,2.900
2023-02-05T12:07:19.887Z,2.700
2023-02-05T12:08:24.203Z,2.599
2023-02-05T12:09:19.169Z,3.099
2023-02-05T12:10:19.235Z,3.5
2023-02-05T12:11:19.094Z,3.200
2023-02-05T12:12:19.297Z,2.5
2023-02-05T12:13:18.970Z,3
2023-02-05T12:14:19.293Z,2.900
2023-02-05T12:16:19.796Z,3
2023-02-05T12:18:19.078Z,3.099
2023-02-05T12:19:19.562Z,3
2023-02-05T12:20:19.619Z,3.099
2023-02-05T12:21:19.190Z,2.900
2023-02-05T12:22:19.212Z,3.299
2023-02-05T12:23:19.194Z,3.099
2023-02-05T12:24:18.918Z,2.799
2023-02-05T12:25:20.092Z,3.099
2023-02-05T12:26:19.139Z,3
2023-02-05T12:27:19.767Z,2.799
2023-02-05T12:28:19.448Z,3.099
2023-02-05T12:29:19.210Z,3.400
2023-02-05T12:30:20.197Z,3.5
2023-02-05T12:31:19.149Z,3.400
2023-02-05T12:32:19.171Z,3.599
2023-02-05T12:33:19.784Z,3.700
2023-02-05T12:34:19.718Z,3.599
2023-02-05T12:35:20.171Z,3.099
2023-02-05T12:36:19.512Z,3.5
2023-02-05T12:37:19.304Z,3.799
2023-02-05T12:38:30.759Z,3.5
2023-02-05T12:39:19.159Z,3.799
2023-02-05T12:40:19.947Z,3.900
2023-02-05T12:41:19.597Z,3.700
2023-02-05T12:42:19.228Z,4.099
2023-02-05T12:43:18.978Z,4.199
2023-02-05T12:44:19.609Z,3.799
2023-02-05T12:45:19.168Z,3.5
2023-02-05T12:46:18.982Z,3.599
2023-02-05T12:47:19.671Z,4.099
2023-02-05T12:48:19.390Z,4
2023-02-05T12:49:19.386Z,3.700
2023-02-05T12:51:18.989Z,4.199
2023-02-05T12:52:19.800Z,4
2023-02-05T12:53:19.828Z,3.900
2023-02-05T12:54:19.802Z,4
2023-02-05T12:57:20.165Z,4.699
2023-02-05T12:58:18.917Z,4.400
2023-02-05T12:59:19.395Z,4.5
2023-02-05T13:00:19.997Z,4.199
2023-02-05T13:01:19.434Z,4.099
2023-02-05T13:04:19.242Z,3.900
2023-02-05T13:05:19.629Z,3.700
2023-02-05T13:06:19.137Z,4
2023-02-05T13:07:19.698Z,4.400
2023-02-05T13:08:19.011Z,3.799
2023-02-05T13:09:19.458Z,3.599
2023-02-05T13:10:19.092Z,4.199
2023-02-05T13:12:19.022Z,3.799
2023-02-05T13:13:19.799Z,4.099
2023-02-05T13:14:19.439Z,4.199
2023-02-05T13:15:19.184Z,3.700
2023-02-05T13:16:18.784Z,4.099
2023-02-05T13:17:19.040Z,3.799
2023-02-05T13:21:19.430Z,3.400
2023-02-05T13:22:18.692Z,3.599
2023-02-05T13:23:19.139Z,4
2023-02-05T13:24:19.092Z,3.900
2023-02-05T13:25:24.701Z,3.599
2023-02-05T13:27:19.484Z,4
2023-02-05T13:28:18.957Z,3.799
2023-02-05T13:29:18.932Z,3.599
2023-02-05T13:30:19.539Z,3.799
2023-02-05T13:31:19.696Z,4
2023-02-05T13:32:17.252Z,3.799
2023-02-05T13:35:19.342Z,3.900
2023-02-05T13:36:18.702Z,4.199
2023-02-05T13:38:19.247Z,3.799
2023-02-05T13:39:19.455Z,4.300
2023-02-05T13:40:22.655Z,4.400
2023-02-05T13:41:19.970Z,4.300
2023-02-05T13:42:19.502Z,4.199
2023-02-05T13:43:19.457Z,4.400
2023-02-05T13:44:19.392Z,3.900
2023-02-05T13:45:19.726Z,4.099
2023-02-05T13:46:20.196Z,4.400
2023-02-05T13:47:19.347Z,3.5
2023-02-05T13:48:19.817Z,3.799
2023-02-05T13:49:19.630Z,4.199
2023-02-05T13:50:20.289Z,4
2023-02-05T13:51:19.211Z,4.099
2023-02-05T13:52:19.371Z,4.300
2023-02-05T13:53:19.273Z,3.900
2023-02-05T13:54:18.777Z,4
2023-02-05T13:55:19.574Z,4.300
2023-02-05T13:57:19.281Z,4.400
2023-02-05T13:58:19.122Z,4.099
2023-02-05T13:59:19.454Z,4.400
2023-02-05T14:00:20.608Z,3.799
2023-02-05T14:01:20.336Z,4.099
2023-02-05T14:02:19.316Z,3.900
2023-02-05T14:03:19.669Z,4
2023-02-05T14:04:19.815Z,3.900
2023-02-05T14:05:20.416Z,4.199
2023-02-05T14:07:19.373Z,4.099
2023-02-05T14:08:19.782Z,4.199
2023-02-05T14:10:19.770Z,4.599
2023-02-05T14:11:19.897Z,4.199
2023-02-05T14:12:19.761Z,4.800
2023-02-05T14:13:20.115Z,5.400
2023-02-05T14:14:19.268Z,4.5
2023-02-05T14:15:19.864Z,4.699
2023-02-05T14:16:19.087Z,5
2023-02-05T14:17:19.549Z,4.800
2023-02-05T14:18:19.085Z,5
2023-02-05T14:19:18.727Z,4.5
2023-02-05T14:20:19.089Z,4.699
2023-02-05T14:21:18.606Z,4.400
2023-02-05T14:24:19.380Z,4.300
2023-02-05T14:25:24.260Z,4.099
2023-02-05T14:26:19.489Z,3.900
2023-02-05T14:27:19.267Z,3.400
2023-02-05T14:28:19.584Z,3.200
2023-02-05T14:29:19.447Z,2.799
2023-02-05T14:30:19.363Z,2.700
2023-02-05T14:31:23.848Z,2.900
2023-02-05T14:32:19.572Z,2.599
2023-02-05T14:33:19.195Z,2.5
2023-02-05T14:34:22.627Z,2.700
2023-02-05T14:36:19.381Z,2.400
2023-02-05T14:37:27.817Z,2.5
2023-02-05T14:38:20.039Z,2
2023-02-05T14:39:28.058Z,2.099
2023-02-05T14:40:20.043Z,2
2023-02-05T14:41:27.881Z,2.099
2023-02-05T14:43:20.385Z,2.400
2023-02-05T14:44:19.466Z,2.099